Time;durP1;ratioP1;P1;durP2;ratioP2;P2;SDS_P1;SDS_P2;PMS_P1;PMS_P2;Temp;Humidity;BMP_temperature;BMP_pressure;BME280_temperature;BME280_humidity;BME280_pressure;Samples;Min_cycle;Max_cycle;Signal;HPM_P1;HPM_P2
2022/04/15 00:02:01;;;;;;;;;;;16.70;68.20;;;;;;5019529;28;19929;-79
2022/04/15 00:04:28;;;;;;;;;;;16.70;68.30;;;;;;5012911;28;20030;-79
2022/04/15 00:06:55;;;;;;;;;;;16.70;68.40;;;;;;5016744;28;19933;-79
2022/04/15 00:09:23;;;;;;;;;;;16.60;68.10;;;;;;5020249;28;20297;-79
2022/04/15 00:11:51;;;;;;;;;;;17.00;68.90;;;;;;5017285;28;20296;-79
2022/04/15 00:14:18;;;;;;;;;;;16.60;68.80;;;;;;5017297;28;20014;-79
2022/04/15 00:16:44;;;;;;;;;;;16.50;68.80;;;;;;5019138;28;19935;-78
2022/04/15 00:19:12;;;;;;;;;;;16.50;68.40;;;;;;5017450;28;20364;-78
2022/04/15 00:21:38;;;;;;;;;;;16.40;68.40;;;;;;5021275;28;20028;-78
2022/04/15 00:24:05;;;;;;;;;;;16.40;69.10;;;;;;5018549;28;19956;-78
2022/04/15 00:26:33;;;;;;;;;;;16.40;69.20;;;;;;5021374;28;20417;-78
2022/04/15 00:29:00;;;;;;;;;;;16.40;69.30;;;;;;5021494;28;20483;-80
2022/04/15 00:31:27;;;;;;;;;;;16.30;68.80;;;;;;5018724;28;19935;-80
2022/04/15 00:33:53;;;;;;;;;;;16.30;69.70;;;;;;5015864;28;19937;-80
2022/04/15 00:36:20;;;;;;;;;;;16.20;70.00;;;;;;5019504;28;20006;-79
2022/04/15 00:38:46;;;;;;;;;;;16.20;69.80;;;;;;5020917;28;19933;-79
2022/04/15 00:41:14;;;;;;;;;;;16.20;69.30;;;;;;5021935;28;19936;-80
2022/04/15 00:43:42;;;;;;;;;;;16.20;69.90;;;;;;5015176;28;20399;-79
2022/04/15 00:46:08;;;;;;;;;;;16.10;69.80;;;;;;5016943;28;19936;-80
2022/04/15 00:48:35;;;;;;;;;;;16.10;69.90;;;;;;5016809;28;19940;-80
2022/04/15 00:51:02;;;;;;;;;;;16.10;69.30;;;;;;5016519;28;20667;-79
2022/04/15 00:53:29;;;;;;;;;;;16.00;69.70;;;;;;5018972;28;19936;-80
2022/04/15 00:55:57;;;;;;;;;;;15.80;71.10;;;;;;5019223;28;19955;-80
2022/04/15 00:58:25;;;;;;;;;;;16.00;70.10;;;;;;5016841;28;19980;-79
2022/04/15 01:00:56;;;;;;;;;;;15.90;69.50;;;;;;5017983;28;19936;-79
2022/04/15 01:03:23;;;;;;;;;;;15.90;70.30;;;;;;5020048;28;19933;-80
2022/04/15 01:05:50;;;;;;;;;;;15.90;70.40;;;;;;5011257;28;19937;-80
2022/04/15 01:08:21;;;;;;;;;;;15.90;70.30;;;;;;5028919;28;19940;-79
2022/04/15 01:10:48;;;;;;;;;;;15.80;69.80;;;;;;5017033;28;19951;-79
2022/04/15 01:13:14;;;;;;;;;;;15.80;70.40;;;;;;5017913;28;19954;-79
2022/04/15 01:15:41;;;;;;;;;;;15.80;70.50;;;;;;5014966;28;19944;-80
2022/04/15 01:18:09;;;;;;;;;;;15.70;70.40;;;;;;5017741;28;19936;-79
2022/04/15 01:20:36;;;;;;;;;;;15.70;70.00;;;;;;5019652;28;19996;-79
2022/04/15 01:23:06;;;;;;;;;;;15.70;70.50;;;;;;5017168;28;19929;-80
2022/04/15 01:25:33;;;;;;;;;;;15.60;70.60;;;;;;5020653;28;20047;-79
2022/04/15 01:28:01;;;;;;;;;;;15.60;70.60;;;;;;5019130;28;21439;-80
2022/04/15 01:30:28;;;;;;;;;;;15.60;70.20;;;;;;5021411;28;19936;-80
2022/04/15 01:32:54;;;;;;;;;;;15.60;70.90;;;;;;5024484;28;19941;-80
2022/04/15 01:35:21;;;;;;;;;;;15.50;70.50;;;;;;5027976;28;20653;-81
2022/04/15 01:37:49;;;;;;;;;;;15.50;71.00;;;;;;5025749;28;19952;-80
2022/04/15 01:40:18;;;;;;;;;;;15.50;70.50;;;;;;5020761;28;20046;-80
2022/04/15 01:42:45;;;;;;;;;;;15.40;71.10;;;;;;5013724;28;19940;-79
2022/04/15 01:45:12;;;;;;;;;;;15.40;71.20;;;;;;5017935;28;19995;-79
2022/04/15 01:47:38;;;;;;;;;;;15.40;71.30;;;;;;5023556;28;20666;-79
2022/04/15 01:50:06;;;;;;;;;;;15.30;70.80;;;;;;5018945;28;19929;-79
2022/04/15 01:52:32;;;;;;;;;;;15.30;71.50;;;;;;5020866;28;19933;-79
2022/04/15 01:54:59;;;;;;;;;;;15.30;71.50;;;;;;5021286;28;19932;-79
2022/04/15 01:57:27;;;;;;;;;;;15.30;71.60;;;;;;5018935;28;20349;-79
2022/04/15 01:59:54;;;;;;;;;;;15.20;71.20;;;;;;5019507;28;20262;-79
2022/04/15 02:02:20;;;;;;;;;;;15.10;71.80;;;;;;5019015;28;19929;-79
2022/04/15 02:04:47;;;;;;;;;;;15.20;71.90;;;;;;5021300;28;19929;-79
2022/04/15 02:07:14;;;;;;;;;;;15.20;71.90;;;;;;5018529;28;19929;-79
2022/04/15 02:09:40;;;;;;;;;;;15.10;72.90;;;;;;5018374;28;19933;-80
2022/04/15 02:12:07;;;;;;;;;;;16.00;72.70;;;;;;5018229;28;19987;-79
2022/04/15 02:14:35;;;;;;;;;;;15.00;72.20;;;;;;5018107;28;19929;-79
2022/04/15 02:17:02;;;;;;;;;;;15.00;72.20;;;;;;5015312;28;19936;-79
2022/04/15 02:19:28;;;;;;;;;;;15.00;71.80;;;;;;5017600;28;19967;-79
2022/04/15 02:21:55;;;;;;;;;;;14.90;72.30;;;;;;5021352;28;19933;-79
2022/04/15 02:24:21;;;;;;;;;;;15.00;72.40;;;;;;5021956;28;19940;-79
2022/04/15 02:26:48;;;;;;;;;;;14.90;72.50;;;;;;5018802;28;19959;-79
2022/04/15 02:29:14;;;;;;;;;;;14.80;72.00;;;;;;5019704;28;19955;-79
2022/04/15 02:31:43;;;;;;;;;;;14.80;72.60;;;;;;5023490;28;19937;-78
2022/04/15 02:34:09;;;;;;;;;;;14.80;72.70;;;;;;5023826;28;20357;-79
2022/04/15 02:36:36;;;;;;;;;;;14.70;72.10;;;;;;5025108;28;19933;-79
2022/04/15 02:39:03;;;;;;;;;;;14.80;72.80;;;;;;5021674;28;19929;-79
2022/04/15 02:41:29;;;;;;;;;;;14.70;78.70;;;;;;5020271;28;19937;-79
2022/04/15 02:43:56;;;;;;;;;;;14.70;72.80;;;;;;5015100;28;19929;-79
2022/04/15 02:46:22;;;;;;;;;;;14.70;72.80;;;;;;5021938;28;19929;-79
2022/04/15 02:48:50;;;;;;;;;;;14.60;72.80;;;;;;5020611;28;19929;-79
2022/04/15 02:51:17;;;;;;;;;;;14.60;72.40;;;;;;5019747;28;20343;-79
2022/04/15 02:53:45;;;;;;;;;;;14.60;72.90;;;;;;5021273;28;19929;-79
2022/04/15 02:56:11;;;;;;;;;;;14.60;73.00;;;;;;5025005;28;19979;-79
2022/04/15 02:58:38;;;;;;;;;;;14.50;73.00;;;;;;5014797;28;19937;-79
2022/04/15 03:01:04;;;;;;;;;;;14.50;72.60;;;;;;5015095;28;19933;-78
2022/04/15 03:03:31;;;;;;;;;;;14.50;73.30;;;;;;5023236;28;19979;-79
2022/04/15 03:06:00;;;;;;;;;;;14.50;73.30;;;;;;5026213;28;20205;-79
2022/04/15 03:08:27;;;;;;;;;;;14.50;73.30;;;;;;5018206;28;19940;-79
2022/04/15 03:10:53;;;;;;;;;;;14.40;72.70;;;;;;5020756;28;19929;-79
2022/04/15 03:13:20;;;;;;;;;;;14.40;73.50;;;;;;5019871;28;20517;-79
2022/04/15 03:15:46;;;;;;;;;;;14.40;73.40;;;;;;5019878;28;19933;-80
2022/04/15 03:18:14;;;;;;;;;;;14.30;73.40;;;;;;5022619;28;19934;-79
2022/04/15 03:20:40;;;;;;;;;;;14.30;73.10;;;;;;5020541;28;19932;-79
2022/04/15 03:23:08;;;;;;;;;;;14.20;73.10;;;;;;5025080;28;19945;-79
2022/04/15 03:25:35;;;;;;;;;;;14.30;73.70;;;;;;5021565;28;19933;-79
2022/04/15 03:28:01;;;;;;;;;;;14.20;73.70;;;;;;5020482;28;19929;-79
2022/04/15 03:30:28;;;;;;;;;;;14.20;73.10;;;;;;5019065;28;19936;-79
2022/04/15 03:32:54;;;;;;;;;;;14.20;73.70;;;;;;5025081;28;19936;-80
2022/04/15 03:35:21;;;;;;;;;;;14.10;74.40;;;;;;5026526;28;20718;-79
2022/04/15 03:37:49;;;;;;;;;;;14.20;73.90;;;;;;5020219;28;19965;-79
2022/04/15 03:40:17;;;;;;;;;;;14.10;73.30;;;;;;5022177;28;19928;-79
2022/04/15 03:42:44;;;;;;;;;;;14.00;80.40;;;;;;5017983;28;20059;-79
2022/04/15 03:45:14;;;;;;;;;;;14.00;74.00;;;;;;5021193;28;20388;-79
2022/04/15 03:47:41;;;;;;;;;;;14.00;74.10;;;;;;5013313;28;19935;-79
2022/04/15 03:50:08;;;;;;;;;;;14.00;73.60;;;;;;5016835;28;19937;-80
2022/04/15 03:52:38;;;;;;;;;;;13.90;74.10;;;;;;5020701;28;20290;-79
2022/04/15 03:55:05;;;;;;;;;;;13.90;74.20;;;;;;5026874;28;19960;-80
2022/04/15 03:57:33;;;;;;;;;;;13.90;74.30;;;;;;5020261;28;19929;-78
2022/04/15 03:59:59;;;;;;;;;;;13.80;73.90;;;;;;5019994;28;19932;-79
2022/04/15 04:02:26;;;;;;;;;;;13.80;74.50;;;;;;5018544;28;20104;-79
2022/04/15 04:04:53;;;;;;;;;;;13.20;74.00;;;;;;5022634;28;19932;-80
2022/04/15 04:07:19;;;;;;;;;;;13.80;74.50;;;;;;5016974;28;19952;-80
2022/04/15 04:09:46;;;;;;;;;;;13.80;74.00;;;;;;5020245;28;20006;-80
2022/04/15 04:12:13;;;;;;;;;;;13.80;74.60;;;;;;5019500;28;20357;-79
2022/04/15 04:14:41;;;;;;;;;;;13.70;74.60;;;;;;5021417;28;19929;-79
2022/04/15 04:17:07;;;;;;;;;;;13.70;74.60;;;;;;5021204;28;20040;-79
2022/04/15 04:19:34;;;;;;;;;;;13.70;74.20;;;;;;5020496;28;19933;-79
2022/04/15 04:22:00;;;;;;;;;;;14.30;75.20;;;;;;5018891;28;19939;-79
2022/04/15 04:24:28;;;;;;;;;;;13.60;74.80;;;;;;5020782;28;19940;-79
2022/04/15 04:26:55;;;;;;;;;;;13.60;74.90;;;;;;5019107;28;19933;-79
2022/04/15 04:29:21;;;;;;;;;;;13.60;74.40;;;;;;5019440;28;19928;-79
2022/04/15 04:31:49;;;;;;;;;;;13.50;75.00;;;;;;5017807;28;19929;-79
2022/04/15 04:34:16;;;;;;;;;;;13.50;75.00;;;;;;5017822;28;19940;-79
2022/04/15 04:36:42;;;;;;;;;;;13.50;75.00;;;;;;5019399;28;19929;-79
2022/04/15 04:39:10;;;;;;;;;;;13.50;75.10;;;;;;5020472;28;19929;-79
2022/04/15 04:41:37;;;;;;;;;;;13.50;74.60;;;;;;5020129;28;19929;-79
2022/04/15 04:44:04;;;;;;;;;;;13.50;75.20;;;;;;5015403;28;20393;-79
2022/04/15 04:46:30;;;;;;;;;;;13.40;75.10;;;;;;5018494;28;19940;-79
2022/04/15 04:48:58;;;;;;;;;;;13.40;75.20;;;;;;5018598;28;19929;-79
2022/04/15 04:51:25;;;;;;;;;;;13.40;74.70;;;;;;5016745;28;19933;-79
2022/04/15 04:53:52;;;;;;;;;;;13.40;75.40;;;;;;5017444;28;20302;-79
2022/04/15 04:56:18;;;;;;;;;;;13.30;75.20;;;;;;5025408;28;19936;-79
2022/04/15 04:58:45;;;;;;;;;;;13.30;75.30;;;;;;5010734;28;19929;-79
2022/04/15 05:01:11;;;;;;;;;;;13.30;74.90;;;;;;5018316;28;19929;-79
2022/04/15 05:03:38;;;;;;;;;;;13.30;75.40;;;;;;5020111;28;19967;-78
2022/04/15 05:06:06;;;;;;;;;;;13.30;75.50;;;;;;5023142;28;19929;-78
2022/04/15 05:08:32;;;;;;;;;;;13.20;75.40;;;;;;5022135;28;19928;-79
2022/04/15 05:10:59;;;;;;;;;;;13.20;75.20;;;;;;5019768;28;19983;-79
2022/04/15 05:13:25;;;;;;;;;;;13.20;75.50;;;;;;5019105;28;19933;-78
2022/04/15 05:15:52;;;;;;;;;;;13.20;75.00;;;;;;5024630;28;19929;-79
2022/04/15 05:18:18;;;;;;;;;;;13.40;75.80;;;;;;5021077;28;20557;-79
2022/04/15 05:20:45;;;;;;;;;;;13.10;81.00;;;;;;5022225;28;19928;-78
2022/04/15 05:23:14;;;;;;;;;;;13.10;75.10;;;;;;5020225;28;19967;-79
2022/04/15 05:25:40;;;;;;;;;;;13.70;76.90;;;;;;5019539;28;19932;-79
2022/04/15 05:28:07;;;;;;;;;;;13.00;75.80;;;;;;5019414;28;19940;-79
2022/04/15 05:30:33;;;;;;;;;;;13.10;75.30;;;;;;5015798;28;19936;-79
2022/04/15 05:33:00;;;;;;;;;;;13.00;76.00;;;;;;5024698;28;20417;-79
2022/04/15 05:35:26;;;;;;;;;;;13.10;76.10;;;;;;5020741;28;19933;-79
2022/04/15 05:37:53;;;;;;;;;;;13.10;76.10;;;;;;5019908;28;19932;-79
2022/04/15 05:40:22;;;;;;;;;;;13.00;75.50;;;;;;5018995;28;19956;-79
2022/04/15 05:42:49;;;;;;;;;;;13.00;76.20;;;;;;5017365;28;19960;-78
2022/04/15 05:45:15;;;;;;;;;;;13.00;76.20;;;;;;5017194;28;19999;-79
2022/04/15 05:47:44;;;;;;;;;;;13.00;76.30;;;;;;5024911;28;19929;-79
2022/04/15 05:50:10;;;;;;;;;;;13.00;75.80;;;;;;5021135;28;20553;-80
2022/04/15 05:52:37;;;;;;;;;;;13.00;76.40;;;;;;5021091;28;19929;-80
2022/04/15 05:55:04;;;;;;;;;;;13.00;76.40;;;;;;5028043;28;19940;-79
2022/04/15 05:57:32;;;;;;;;;;;13.00;76.50;;;;;;5028594;28;19932;-78
2022/04/15 05:59:59;;;;;;;;;;;13.00;76.00;;;;;;5023864;28;19936;-79
2022/04/15 06:02:25;;;;;;;;;;;13.00;76.60;;;;;;5019228;28;19928;-78
2022/04/15 06:04:52;;;;;;;;;;;13.00;76.70;;;;;;5025782;28;19936;-79
2022/04/15 06:07:18;;;;;;;;;;;13.00;76.70;;;;;;5023627;28;20027;-78
2022/04/15 06:09:45;;;;;;;;;;;13.00;76.30;;;;;;5023263;28;20047;-78
2022/04/15 06:12:11;;;;;;;;;;;13.00;76.90;;;;;;5021921;28;19932;-78
2022/04/15 06:14:39;;;;;;;;;;;13.00;77.00;;;;;;5023591;28;19937;-78
2022/04/15 06:17:06;;;;;;;;;;;13.00;77.10;;;;;;5022017;28;19939;-78
2022/04/15 06:19:32;;;;;;;;;;;13.00;76.40;;;;;;5024695;28;19933;-78
2022/04/15 06:21:59;;;;;;;;;;;13.00;77.00;;;;;;5021980;28;20401;-79
2022/04/15 06:24:25;;;;;;;;;;;13.00;77.00;;;;;;5027416;28;20678;-78
2022/04/15 06:26:52;;;;;;;;;;;13.00;77.00;;;;;;5017810;28;20404;-79
2022/04/15 06:29:19;;;;;;;;;;;13.10;76.50;;;;;;5018266;28;19934;-78
2022/04/15 06:31:47;;;;;;;;;;;13.00;77.40;;;;;;5020364;28;19991;-78
2022/04/15 06:34:13;;;;;;;;;;;13.10;77.00;;;;;;5021399;28;19987;-78
2022/04/15 06:36:40;;;;;;;;;;;13.10;77.00;;;;;;5021687;28;20586;-79
2022/04/15 06:39:06;;;;;;;;;;;13.10;77.00;;;;;;5023102;28;19940;-78
2022/04/15 06:41:34;;;;;;;;;;;13.10;76.40;;;;;;5026700;28;19933;-78
2022/04/15 06:44:00;;;;;;;;;;;13.10;77.00;;;;;;5022318;28;19929;-78
2022/04/15 06:46:27;;;;;;;;;;;13.10;76.90;;;;;;5019870;28;19933;-78
2022/04/15 06:48:55;;;;;;;;;;;13.10;76.90;;;;;;5019345;28;19929;-78
2022/04/15 06:51:21;;;;;;;;;;;13.10;76.30;;;;;;5019194;28;19929;-78
2022/04/15 06:53:48;;;;;;;;;;;13.10;76.90;;;;;;5018236;28;20516;-79
2022/04/15 06:56:14;;;;;;;;;;;13.10;76.90;;;;;;5025137;28;20686;-79
2022/04/15 06:58:42;;;;;;;;;;;13.10;77.00;;;;;;5019972;28;19929;-78
2022/04/15 07:01:09;;;;;;;;;;;13.20;76.50;;;;;;5020925;28;20024;-79
2022/04/15 07:03:35;;;;;;;;;;;13.10;77.10;;;;;;5016582;28;19937;-78
2022/04/15 07:06:03;;;;;;;;;;;13.20;77.10;;;;;;5020116;28;19929;-78
2022/04/15 07:08:30;;;;;;;;;;;13.20;77.20;;;;;;5022319;28;20297;-78
2022/04/15 07:10:56;;;;;;;;;;;13.20;76.50;;;;;;5016916;28;19936;-78
2022/04/15 07:13:23;;;;;;;;;;;13.20;77.10;;;;;;5022584;28;19933;-79
2022/04/15 07:15:50;;;;;;;;;;;13.20;77.10;;;;;;5020134;28;19955;-79
2022/04/15 07:18:17;;;;;;;;;;;13.20;77.10;;;;;;5025600;28;20412;-79
2022/04/15 07:20:43;;;;;;;;;;;13.20;77.10;;;;;;5020134;28;19929;-78
2022/04/15 07:23:11;;;;;;;;;;;13.30;77.10;;;;;;5021198;28;19936;-78
2022/04/15 07:25:38;;;;;;;;;;;13.30;77.20;;;;;;5019625;28;19929;-79
2022/04/15 07:28:05;;;;;;;;;;;13.30;77.20;;;;;;5021704;28;19929;-78
2022/04/15 07:30:32;;;;;;;;;;;13.30;76.70;;;;;;5016810;28;19937;-79
2022/04/15 07:33:00;;;;;;;;;;;13.30;77.30;;;;;;5021383;28;19936;-79
2022/04/15 07:35:26;;;;;;;;;;;13.40;77.40;;;;;;5020668;28;20016;-79
2022/04/15 07:37:53;;;;;;;;;;;13.40;77.30;;;;;;5019162;28;19929;-79
2022/04/15 07:40:27;;;;;;;;;;;13.40;77.40;;;;;;5019803;28;19929;-78
2022/04/15 07:42:53;;;;;;;;;;;13.40;77.60;;;;;;5019757;28;20680;-78
2022/04/15 07:45:20;;;;;;;;;;;13.40;77.80;;;;;;5022662;28;19940;-79
2022/04/15 07:47:47;;;;;;;;;;;13.50;77.90;;;;;;5029079;28;19940;-80
2022/04/15 07:50:14;;;;;;;;;;;13.50;77.80;;;;;;5020436;28;19933;-81
2022/04/15 07:52:41;;;;;;;;;;;13.50;77.90;;;;;;5022847;28;20028;-79
2022/04/15 07:55:08;;;;;;;;;;;13.50;77.90;;;;;;5022763;28;20600;-79
2022/04/15 07:57:36;;;;;;;;;;;13.50;78.00;;;;;;5024308;28;20010;-78
2022/04/15 08:00:04;;;;;;;;;;;13.50;78.20;;;;;;5020671;28;19929;-79
2022/04/15 08:02:30;;;;;;;;;;;13.60;77.90;;;;;;5022798;28;19929;-78
2022/04/15 08:04:57;;;;;;;;;;;13.60;77.70;;;;;;5022384;28;22164;-79
2022/04/15 08:07:24;;;;;;;;;;;13.60;77.80;;;;;;5023766;28;19961;-79
2022/04/15 08:09:51;;;;;;;;;;;13.70;77.80;;;;;;5022710;28;19940;-79
2022/04/15 08:12:17;;;;;;;;;;;13.70;77.60;;;;;;5024907;28;19944;-79
2022/04/15 08:14:45;;;;;;;;;;;13.70;77.50;;;;;;5023026;28;19940;-79
2022/04/15 08:17:12;;;;;;;;;;;13.70;77.80;;;;;;5018620;28;19940;-79
2022/04/15 08:19:38;;;;;;;;;;;13.80;77.80;;;;;;5019740;28;19933;-79
2022/04/15 08:22:09;;;;;;;;;;;13.80;77.70;;;;;;5023620;28;19937;-79
2022/04/15 08:24:38;;;;;;;;;;;13.80;77.60;;;;;;5017094;28;20700;-79
2022/04/15 08:27:05;;;;;;;;;;;13.90;77.50;;;;;;5016624;28;20472;-79
2022/04/15 08:29:32;;;;;;;;;;;13.90;77.40;;;;;;5018579;28;19929;-79
2022/04/15 08:32:00;;;;;;;;;;;13.90;77.30;;;;;;5021251;28;19932;-79
2022/04/15 08:34:27;;;;;;;;;;;14.00;77.40;;;;;;5029853;28;19990;-79
2022/04/15 08:36:53;;;;;;;;;;;14.00;77.40;;;;;;5019392;28;20673;-79
2022/04/15 08:39:20;;;;;;;;;;;14.10;77.40;;;;;;5030744;28;19936;-79
2022/04/15 08:41:46;;;;;;;;;;;14.10;77.30;;;;;;5018951;28;19925;-79
2022/04/15 08:44:13;;;;;;;;;;;14.10;77.10;;;;;;5025765;28;19937;-78
2022/04/15 08:46:40;;;;;;;;;;;14.10;77.00;;;;;;5011745;28;19933;-79
2022/04/15 08:49:08;;;;;;;;;;;14.20;77.10;;;;;;5015947;28;19935;-79
2022/04/15 08:51:35;;;;;;;;;;;14.20;77.00;;;;;;5020638;28;19936;-79
2022/04/15 08:54:02;;;;;;;;;;;14.30;77.00;;;;;;5021876;28;19933;-79
2022/04/15 08:56:29;;;;;;;;;;;14.30;76.90;;;;;;5022623;28;19929;-79
2022/04/15 08:58:56;;;;;;;;;;;14.40;76.80;;;;;;5020830;28;19929;-79
2022/04/15 09:01:23;;;;;;;;;;;14.40;76.60;;;;;;5015932;28;20465;-80
2022/04/15 09:03:49;;;;;;;;;;;14.50;76.50;;;;;;5021424;28;19983;-79
2022/04/15 09:06:17;;;;;;;;;;;14.50;76.30;;;;;;5023382;28;19937;-80
2022/04/15 09:09:03;;;;;;;;;;;14.50;76.10;;;;;;5016152;28;19936;-79
2022/04/15 09:11:31;;;;;;;;;;;14.60;76.00;;;;;;5019437;28;19933;-78
2022/04/15 09:13:57;;;;;;;;;;;14.70;75.90;;;;;;5014225;28;20242;-79
2022/04/15 09:16:24;;;;;;;;;;;14.70;75.60;;;;;;5016847;28;19929;-79
2022/04/15 09:18:52;;;;;;;;;;;14.80;75.50;;;;;;5017880;28;19941;-79
2022/04/15 09:21:21;;;;;;;;;;;14.80;75.20;;;;;;5014439;28;19933;-80
2022/04/15 09:23:48;;;;;;;;;;;14.90;75.20;;;;;;5015712;28;20020;-79
2022/04/15 09:26:15;;;;;;;;;;;14.90;75.10;;;;;;5019112;28;19932;-79
2022/04/15 09:28:42;;;;;;;;;;;15.00;74.90;;;;;;5016839;28;20008;-79
2022/04/15 09:31:13;;;;;;;;;;;15.10;74.70;;;;;;5016436;28;19981;-78
2022/04/15 09:33:40;;;;;;;;;;;15.10;74.40;;;;;;5015521;28;19929;-79
2022/04/15 09:36:06;;;;;;;;;;;15.20;74.20;;;;;;5015686;28;19948;-79
2022/04/15 09:38:44;;;;;;;;;;;15.20;74.00;;;;;;5012220;28;19973;-79
2022/04/15 09:41:20;;;;;;;;;;;15.30;73.80;;;;;;5022953;28;19929;-79
2022/04/15 09:43:48;;;;;;;;;;;15.30;73.70;;;;;;5022354;28;19936;-79
2022/04/15 09:46:14;;;;;;;;;;;15.40;73.40;;;;;;5012513;28;20313;-80
2022/04/15 09:48:56;;;;;;;;;;;15.50;73.40;;;;;;5016249;28;20409;-79
2022/04/15 09:51:23;;;;;;;;;;;15.50;73.20;;;;;;5018514;28;19929;-79
2022/04/15 09:53:55;;;;;;;;;;;15.60;73.00;;;;;;5013508;28;19929;-79
2022/04/15 09:56:23;;;;;;;;;;;15.60;72.50;;;;;;5031616;28;19929;-78
2022/04/15 09:58:51;;;;;;;;;;;15.70;72.30;;;;;;5024698;28;19929;-79
2022/04/15 10:01:18;;;;;;;;;;;15.70;72.30;;;;;;5028450;28;20573;-79
2022/04/15 10:03:45;;;;;;;;;;;15.80;72.10;;;;;;5027774;28;19952;-79
2022/04/15 10:06:13;;;;;;;;;;;15.90;72.10;;;;;;5032063;28;19960;-79
2022/04/15 10:08:40;;;;;;;;;;;16.00;72.00;;;;;;5025700;28;19940;-78
2022/04/15 10:11:09;;;;;;;;;;;16.00;71.80;;;;;;5028703;28;19985;-79
2022/04/15 10:13:36;;;;;;;;;;;16.00;71.60;;;;;;5021884;28;19933;-79
2022/04/15 10:16:03;;;;;;;;;;;16.10;71.20;;;;;;5019147;28;19940;-80
2022/04/15 10:18:30;;;;;;;;;;;16.20;70.80;;;;;;5021418;28;19994;-79
2022/04/15 10:21:01;;;;;;;;;;;16.20;70.40;;;;;;5015924;28;19933;-79
2022/04/15 10:23:28;;;;;;;;;;;16.20;70.50;;;;;;5014811;28;20641;-80
2022/04/15 10:25:55;;;;;;;;;;;16.30;70.50;;;;;;5018981;28;19936;-79
2022/04/15 10:28:38;;;;;;;;;;;16.30;70.00;;;;;;5016038;28;20026;-79
2022/04/15 10:31:05;;;;;;;;;;;16.40;69.40;;;;;;5020130;28;20860;-79
2022/04/15 10:33:33;;;;;;;;;;;16.40;68.90;;;;;;5019185;28;19936;-79
2022/04/15 10:36:00;;;;;;;;;;;16.40;69.10;;;;;;5018490;28;20723;-79
2022/04/15 10:38:26;;;;;;;;;;;16.50;68.90;;;;;;5020997;28;19960;-79
2022/04/15 10:40:53;;;;;;;;;;;16.60;68.80;;;;;;5019407;28;20850;-79
2022/04/15 10:43:21;;;;;;;;;;;16.70;68.50;;;;;;5021628;28;19936;-79
2022/04/15 10:45:51;;;;;;;;;;;16.70;67.90;;;;;;5022033;28;19933;-79
2022/04/15 10:48:29;;;;;;;;;;;16.70;67.70;;;;;;5024631;28;19933;-79
2022/04/15 10:50:55;;;;;;;;;;;16.70;67.60;;;;;;5021358;28;19939;-80
2022/04/15 10:53:33;;;;;;;;;;;16.80;67.20;;;;;;5015911;28;19929;-80
2022/04/15 10:56:06;;;;;;;;;;;16.80;67.00;;;;;;5019752;28;20019;-79
2022/04/15 11:01:13;;;;;;;;;;;16.80;67.10;;;;;;5016058;28;20341;-79
2022/04/15 11:01:50;;;;;;;;;;;16.90;67.20;;;;;;5018430;28;19976;-80
2022/04/15 11:04:22;;;;;;;;;;;17.00;66.90;;;;;;5021467;28;19929;-79
2022/04/15 11:06:50;;;;;;;;;;;17.00;66.70;;;;;;5020160;28;19929;-79
2022/04/15 11:09:21;;;;;;;;;;;17.10;66.40;;;;;;5011072;28;19964;-80
2022/04/15 11:11:51;;;;;;;;;;;17.10;66.50;;;;;;5017351;28;19929;-79
2022/04/15 11:14:18;;;;;;;;;;;17.20;66.10;;;;;;5016540;28;20019;-81
2022/04/15 11:16:46;;;;;;;;;;;17.20;65.90;;;;;;5019707;28;19933;-80
2022/04/15 11:19:17;;;;;;;;;;;17.30;65.30;;;;;;5018989;28;19929;-80
2022/04/15 11:21:50;;;;;;;;;;;17.40;65.00;;;;;;5019723;28;19940;-79
2022/04/15 11:24:21;;;;;;;;;;;17.40;64.60;;;;;;5022136;28;20028;-79
2022/04/15 11:26:48;;;;;;;;;;;17.50;64.60;;;;;;5016336;28;19933;-80
2022/04/15 11:29:14;;;;;;;;;;;17.50;64.70;;;;;;5021775;28;19940;-79
2022/04/15 11:31:42;;;;;;;;;;;17.60;63.80;;;;;;5018028;28;19936;-79
2022/04/15 11:34:09;;;;;;;;;;;17.60;64.10;;;;;;5019672;28;19959;-79
2022/04/15 11:36:38;;;;;;;;;;;17.70;63.90;;;;;;5020193;28;19933;-78
2022/04/15 11:39:06;;;;;;;;;;;17.80;63.30;;;;;;5015843;28;20305;-78
2022/04/15 11:41:33;;;;;;;;;;;17.80;62.80;;;;;;5019392;28;19928;-79
2022/04/15 11:44:00;;;;;;;;;;;17.90;62.70;;;;;;5025325;28;19939;-78
2022/04/15 11:46:27;;;;;;;;;;;17.90;62.40;;;;;;5017341;28;20420;-79
2022/04/15 11:48:56;;;;;;;;;;;18.00;61.90;;;;;;5021623;28;20405;-80
2022/04/15 11:51:24;;;;;;;;;;;18.10;62.00;;;;;;5022665;28;19928;-78
2022/04/15 11:53:54;;;;;;;;;;;18.10;62.10;;;;;;5014699;28;20390;-79
2022/04/15 11:56:25;;;;;;;;;;;18.20;61.40;;;;;;5017454;28;20015;-79
2022/04/15 11:58:51;;;;;;;;;;;18.20;61.10;;;;;;5019627;28;19929;-77
2022/04/15 12:01:25;;;;;;;;;;;18.20;60.70;;;;;;5021899;28;19929;-79
2022/04/15 12:03:52;;;;;;;;;;;18.30;60.30;;;;;;5017983;28;19929;-78
2022/04/15 12:06:18;;;;;;;;;;;18.40;60.60;;;;;;5015241;28;19929;-79
2022/04/15 12:08:46;;;;;;;;;;;18.40;60.20;;;;;;5014601;28;19930;-79
2022/04/15 12:11:14;;;;;;;;;;;18.40;59.90;;;;;;5029269;28;20363;-78
2022/04/15 12:13:40;;;;;;;;;;;18.50;60.20;;;;;;5016362;28;19977;-78
2022/04/15 12:16:09;;;;;;;;;;;18.50;59.90;;;;;;5022223;28;19936;-79
2022/04/15 12:18:35;;;;;;;;;;;18.60;59.70;;;;;;5023895;28;20044;-78
2022/04/15 12:21:02;;;;;;;;;;;18.60;58.90;;;;;;5014725;28;19929;-79
2022/04/15 12:23:28;;;;;;;;;;;18.70;59.10;;;;;;5025974;28;19932;-78
2022/04/15 12:26:09;;;;;;;;;;;18.70;59.00;;;;;;5019009;28;20046;-79
2022/04/15 12:31:25;;;;;;;;;;;18.90;58.60;;;;;;5013789;28;19979;-79
2022/04/15 12:33:52;;;;;;;;;;;18.90;58.20;;;;;;5017533;28;19926;-78
2022/04/15 12:36:19;;;;;;;;;;;18.90;57.80;;;;;;5021926;28;19991;-78
2022/04/15 12:38:59;;;;;;;;;;;18.90;57.70;;;;;;5030273;28;19928;-78
2022/04/15 12:41:37;;;;;;;;;;;18.90;57.90;;;;;;5026002;28;20276;-78
2022/04/15 12:44:15;;;;;;;;;;;19.00;58.00;;;;;;5023564;28;20423;-78
2022/04/15 12:46:44;;;;;;;;;;;19.00;58.60;;;;;;5015889;28;20008;-78
2022/04/15 12:49:25;;;;;;;;;;;19.00;57.80;;;;;;5019303;28;19944;-79
2022/04/15 12:51:52;;;;;;;;;;;19.10;57.90;;;;;;5015720;28;19929;-78
2022/04/15 12:54:18;;;;;;;;;;;19.10;57.10;;;;;;5016775;28;19925;-78
2022/04/15 12:56:55;;;;;;;;;;;19.20;57.30;;;;;;5016971;28;19933;-78
2022/04/15 12:59:23;;;;;;;;;;;19.20;57.30;;;;;;5015231;28;19945;-79
2022/04/15 13:01:50;;;;;;;;;;;19.30;57.10;;;;;;5019466;28;19953;-78
2022/04/15 13:04:17;;;;;;;;;;;19.30;56.80;;;;;;5015306;28;20106;-78
2022/04/15 13:06:43;;;;;;;;;;;19.40;56.40;;;;;;5018304;28;20468;-78
2022/04/15 13:09:10;;;;;;;;;;;19.40;56.40;;;;;;5022047;28;19936;-79
2022/04/15 13:11:37;;;;;;;;;;;19.40;55.60;;;;;;5025578;28;19979;-78
2022/04/15 13:14:03;;;;;;;;;;;19.40;55.50;;;;;;5017021;28;20569;-78
2022/04/15 13:16:31;;;;;;;;;;;19.50;55.50;;;;;;5016345;28;19933;-78
2022/04/15 13:18:58;;;;;;;;;;;19.60;56.00;;;;;;5017084;28;19928;-78
2022/04/15 13:21:25;;;;;;;;;;;19.60;55.60;;;;;;5015718;28;19929;-78
2022/04/15 13:23:51;;;;;;;;;;;19.60;55.30;;;;;;5012822;28;19956;-79
2022/04/15 13:26:18;;;;;;;;;;;19.70;54.30;;;;;;5017898;28;20371;-79
2022/04/15 13:28:44;;;;;;;;;;;19.70;54.70;;;;;;5012275;28;20312;-79
2022/04/15 13:31:11;;;;;;;;;;;19.70;54.90;;;;;;5017691;28;20052;-78
2022/04/15 13:33:40;;;;;;;;;;;19.80;54.80;;;;;;5014939;28;19955;-79
2022/04/15 13:36:06;;;;;;;;;;;19.80;53.60;;;;;;5020191;28;19940;-78
2022/04/15 13:38:33;;;;;;;;;;;19.90;53.90;;;;;;5021877;28;19936;-79
2022/04/15 13:41:00;;;;;;;;;;;19.80;53.30;;;;;;5016796;28;19940;-78
2022/04/15 13:43:27;;;;;;;;;;;19.90;53.90;;;;;;5022668;28;19932;-78
2022/04/15 13:45:54;;;;;;;;;;;19.90;53.80;;;;;;5014508;28;19995;-78
2022/04/15 13:48:21;;;;;;;;;;;19.90;53.50;;;;;;5016946;28;19933;-79
2022/04/15 13:50:49;;;;;;;;;;;20.00;53.00;;;;;;5017275;28;19935;-78
2022/04/15 13:58:45;;;;;;;;;;;20.10;52.90;;;;;;5018932;28;20301;-80
2022/04/15 14:01:23;;;;;;;;;;;20.10;52.20;;;;;;5013927;28;19940;-79
2022/04/15 14:03:50;;;;;;;;;;;20.20;52.60;;;;;;5018619;28;19936;-79
2022/04/15 14:06:18;;;;;;;;;;;20.20;51.90;;;;;;5015876;28;20023;-79
2022/04/15 14:08:45;;;;;;;;;;;20.20;52.30;;;;;;5018086;28;20023;-79
2022/04/15 14:11:12;;;;;;;;;;;20.30;52.00;;;;;;5015828;28;19929;-79
2022/04/15 14:13:39;;;;;;;;;;;20.40;51.80;;;;;;5023752;28;19940;-79
2022/04/15 14:16:05;;;;;;;;;;;20.40;51.60;;;;;;5022392;28;19955;-79
2022/04/15 14:18:32;;;;;;;;;;;20.50;51.60;;;;;;5021800;28;19940;-79
2022/04/15 14:20:58;;;;;;;;;;;20.50;50.90;;;;;;5019112;28;19932;-79
2022/04/15 14:23:27;;;;;;;;;;;20.60;50.70;;;;;;5024208;28;19994;-79
2022/04/15 14:25:54;;;;;;;;;;;20.60;50.00;;;;;;5021399;28;20748;-80
2022/04/15 14:28:20;;;;;;;;;;;20.60;49.80;;;;;;5018758;28;19944;-79